sensor_id;sensor_type;location;lat;lon;timestamp;pressure;altitude;pressure_sealevel;temperature;humidity
47430;BME280;33181;49.246;7.372;2022-12-29T00:01:56;98226.41;;;9.71;100.00
47430;BME280;33181;49.246;7.372;2022-12-29T00:04:22;98215.66;;;9.74;100.00
47430;BME280;33181;49.246;7.372;2022-12-29T00:06:48;98213.16;;;9.73;100.00
47430;BME280;33181;49.246;7.372;2022-12-29T00:09:15;98219.50;;;9.70;100.00
47430;BME280;33181;49.246;7.372;2022-12-29T00:11:42;98209.38;;;9.87;98.09
47430;BME280;33181;49.246;7.372;2022-12-29T00:14:11;98199.97;;;9.84;97.93
47430;BME280;33181;49.246;7.372;2022-12-29T00:16:56;98200.03;;;10.04;94.61
47430;BME280;33181;49.246;7.372;2022-12-29T00:19:22;98198.66;;;10.09;94.00
47430;BME280;33181;49.246;7.372;2022-12-29T00:22:12;98175.06;;;10.19;92.72
47430;BME280;33181;49.246;7.372;2022-12-29T00:24:57;98188.75;;;10.23;92.01
47430;BME280;33181;49.246;7.372;2022-12-29T00:27:41;98197.75;;;10.30;91.21
47430;BME280;33181;49.246;7.372;2022-12-29T00:30:26;98187.41;;;10.28;92.07
47430;BME280;33181;49.246;7.372;2022-12-29T00:33:19;98187.28;;;10.39;90.27
47430;BME280;33181;49.246;7.372;2022-12-29T00:36:18;98190.16;;;10.36;91.05
47430;BME280;33181;49.246;7.372;2022-12-29T00:39:17;98179.00;;;10.44;90.15
47430;BME280;33181;49.246;7.372;2022-12-29T00:42:04;98184.53;;;10.41;90.76
47430;BME280;33181;49.246;7.372;2022-12-29T00:44:49;98173.31;;;10.39;90.84
47430;BME280;33181;49.246;7.372;2022-12-29T00:47:15;98182.72;;;10.51;90.08
47430;BME280;33181;49.246;7.372;2022-12-29T00:49:40;98183.97;;;10.47;90.93
47430;BME280;33181;49.246;7.372;2022-12-29T00:52:12;98169.97;;;10.27;92.20
47430;BME280;33181;49.246;7.372;2022-12-29T00:54:40;98169.16;;;10.27;92.14
47430;BME280;33181;49.246;7.372;2022-12-29T00:57:08;98179.28;;;10.41;91.40
47430;BME280;33181;49.246;7.372;2022-12-29T00:59:39;98175.53;;;10.43;91.39
47430;BME280;33181;49.246;7.372;2022-12-29T01:02:06;98188.78;;;10.42;91.38
47430;BME280;33181;49.246;7.372;2022-12-29T01:04:32;98172.06;;;10.43;91.05
47430;BME280;33181;49.246;7.372;2022-12-29T01:06:57;98180.53;;;10.47;90.73
47430;BME280;33181;49.246;7.372;2022-12-29T01:09:24;98178.03;;;10.45;91.06
47430;BME280;33181;49.246;7.372;2022-12-29T01:12:09;98183.81;;;10.39;91.32
47430;BME280;33181;49.246;7.372;2022-12-29T01:14:35;98176.78;;;10.49;91.15
47430;BME280;33181;49.246;7.372;2022-12-29T01:17:01;98171.78;;;10.36;92.22
47430;BME280;33181;49.246;7.372;2022-12-29T01:19:27;98165.16;;;10.32;92.47
47430;BME280;33181;49.246;7.372;2022-12-29T01:21:52;98160.00;;;10.21;93.48
47430;BME280;33181;49.246;7.372;2022-12-29T01:24:21;98164.16;;;10.24;92.54
47430;BME280;33181;49.246;7.372;2022-12-29T01:26:48;98165.59;;;10.28;92.37
47430;BME280;33181;49.246;7.372;2022-12-29T01:29:14;98156.47;;;10.32;92.70
47430;BME280;33181;49.246;7.372;2022-12-29T01:31:40;98163.09;;;10.26;93.44
47430;BME280;33181;49.246;7.372;2022-12-29T01:34:06;98168.03;;;10.19;93.20
47430;BME280;33181;49.246;7.372;2022-12-29T01:36:32;98176.59;;;10.21;93.51
47430;BME280;33181;49.246;7.372;2022-12-29T01:38:58;98170.25;;;10.34;91.36
47430;BME280;33181;49.246;7.372;2022-12-29T01:41:27;98170.84;;;10.28;91.82
47430;BME280;33181;49.246;7.372;2022-12-29T01:43:59;98162.09;;;10.27;91.89
47430;BME280;33181;49.246;7.372;2022-12-29T01:49:23;98175.22;;;10.27;91.82
47430;BME280;33181;49.246;7.372;2022-12-29T01:52:05;98176.91;;;10.38;90.98
47430;BME280;33181;49.246;7.372;2022-12-29T01:54:47;98177.03;;;10.36;90.91
47430;BME280;33181;49.246;7.372;2022-12-29T01:57:20;98160.03;;;10.31;91.47
47430;BME280;33181;49.246;7.372;2022-12-29T02:02:33;98156.03;;;10.36;90.56
47430;BME280;33181;49.246;7.372;2022-12-29T02:05:03;98156.88;;;10.37;90.88
47430;BME280;33181;49.246;7.372;2022-12-29T02:07:30;98154.81;;;10.50;89.40
47430;BME280;33181;49.246;7.372;2022-12-29T02:09:57;98160.47;;;10.55;88.83
47430;BME280;33181;49.246;7.372;2022-12-29T02:12:24;98156.75;;;10.58;88.67
47430;BME280;33181;49.246;7.372;2022-12-29T02:14:55;98144.31;;;10.60;88.92
47430;BME280;33181;49.246;7.372;2022-12-29T02:18:05;98155.50;;;10.52;89.02
47430;BME280;33181;49.246;7.372;2022-12-29T02:20:44;98155.38;;;10.44;89.34
47430;BME280;33181;49.246;7.372;2022-12-29T02:31:40;98148.44;;;10.53;88.02
47430;BME280;33181;49.246;7.372;2022-12-29T02:37:34;98131.03;;;10.52;87.53
47430;BME280;33181;49.246;7.372;2022-12-29T02:40:58;98134.47;;;10.52;87.34
47430;BME280;33181;49.246;7.372;2022-12-29T02:43:33;98128.41;;;10.52;86.92
47430;BME280;33181;49.246;7.372;2022-12-29T02:49:01;98140.59;;;10.62;85.45
47430;BME280;33181;49.246;7.372;2022-12-29T02:52:10;98125.66;;;10.63;85.01
47430;BME280;33181;49.246;7.372;2022-12-29T02:54:40;98128.41;;;10.61;84.84
47430;BME280;33181;49.246;7.372;2022-12-29T02:59:38;98081.56;;;10.57;85.12
47430;BME280;33181;49.246;7.372;2022-12-29T03:11:04;98079.31;;;10.62;83.85
47430;BME280;33181;49.246;7.372;2022-12-29T03:13:44;98061.66;;;10.54;84.11
47430;BME280;33181;49.246;7.372;2022-12-29T03:16:48;98064.00;;;10.57;83.34
47430;BME280;33181;49.246;7.372;2022-12-29T03:19:30;98074.09;;;10.52;83.49
47430;BME280;33181;49.246;7.372;2022-12-29T03:22:13;98064.13;;;10.56;83.35
47430;BME280;33181;49.246;7.372;2022-12-29T03:25:21;98070.91;;;10.58;82.49
47430;BME280;33181;49.246;7.372;2022-12-29T03:28:33;98059.31;;;10.61;82.59
47430;BME280;33181;49.246;7.372;2022-12-29T03:31:03;98073.53;;;10.58;82.58
47430;BME280;33181;49.246;7.372;2022-12-29T03:33:30;98047.44;;;10.57;83.04
47430;BME280;33181;49.246;7.372;2022-12-29T03:36:01;98054.88;;;10.61;82.40
47430;BME280;33181;49.246;7.372;2022-12-29T03:38:44;98043.09;;;10.65;82.21
47430;BME280;33181;49.246;7.372;2022-12-29T03:41:17;98059.28;;;10.71;82.28
47430;BME280;33181;49.246;7.372;2022-12-29T03:43:45;98048.66;;;10.72;82.21
47430;BME280;33181;49.246;7.372;2022-12-29T03:46:11;98043.81;;;10.67;82.36
47430;BME280;33181;49.246;7.372;2022-12-29T03:48:37;98046.56;;;10.76;82.15
47430;BME280;33181;49.246;7.372;2022-12-29T03:51:03;98057.75;;;10.68;82.95
47430;BME280;33181;49.246;7.372;2022-12-29T03:53:28;98042.84;;;10.59;82.49
47430;BME280;33181;49.246;7.372;2022-12-29T03:55:56;98040.19;;;10.68;81.65
47430;BME280;33181;49.246;7.372;2022-12-29T03:58:22;98034.25;;;10.76;81.50
47430;BME280;33181;49.246;7.372;2022-12-29T04:00:48;98051.41;;;10.71;81.96
47430;BME280;33181;49.246;7.372;2022-12-29T04:03:14;98036.34;;;10.73;81.85
47430;BME280;33181;49.246;7.372;2022-12-29T04:05:39;98032.72;;;10.74;82.07
47430;BME280;33181;49.246;7.372;2022-12-29T04:08:08;98034.66;;;10.72;81.95
47430;BME280;33181;49.246;7.372;2022-12-29T04:10:34;98054.03;;;10.71;81.54
47430;BME280;33181;49.246;7.372;2022-12-29T04:12:59;98040.88;;;10.71;81.97
47430;BME280;33181;49.246;7.372;2022-12-29T04:15:25;98045.59;;;10.77;80.97
47430;BME280;33181;49.246;7.372;2022-12-29T04:17:51;98049.03;;;10.77;81.16
47430;BME280;33181;49.246;7.372;2022-12-29T04:20:17;98038.66;;;10.85;80.22
47430;BME280;33181;49.246;7.372;2022-12-29T04:23:03;98041.03;;;10.79;80.88
47430;BME280;33181;49.246;7.372;2022-12-29T04:25:31;98031.72;;;10.84;80.55
47430;BME280;33181;49.246;7.372;2022-12-29T04:27:57;98039.75;;;10.83;80.47
47430;BME280;33181;49.246;7.372;2022-12-29T04:30:23;98041.94;;;10.97;79.69
47430;BME280;33181;49.246;7.372;2022-12-29T04:32:48;98040.16;;;10.88;80.11
47430;BME280;33181;49.246;7.372;2022-12-29T04:35:14;98042.59;;;10.99;80.01
47430;BME280;33181;49.246;7.372;2022-12-29T04:37:40;98037.06;;;11.02;79.53
47430;BME280;33181;49.246;7.372;2022-12-29T04:40:06;98032.09;;;10.99;80.20
47430;BME280;33181;49.246;7.372;2022-12-29T04:42:32;98041.78;;;10.99;79.70
47430;BME280;33181;49.246;7.372;2022-12-29T04:44:58;98033.34;;;10.95;80.18
47430;BME280;33181;49.246;7.372;2022-12-29T04:47:24;98037.34;;;10.99;79.62
47430;BME280;33181;49.246;7.372;2022-12-29T04:49:49;98042.22;;;10.94;79.67
47430;BME280;33181;49.246;7.372;2022-12-29T04:52:15;98044.16;;;10.92;80.06
47430;BME280;33181;49.246;7.372;2022-12-29T04:54:41;98040.97;;;10.98;79.41
47430;BME280;33181;49.246;7.372;2022-12-29T04:57:06;98047.47;;;10.94;79.96
47430;BME280;33181;49.246;7.372;2022-12-29T04:59:32;98050.72;;;11.06;79.04
47430;BME280;33181;49.246;7.372;2022-12-29T05:01:58;98041.75;;;11.08;79.10
47430;BME280;33181;49.246;7.372;2022-12-29T05:04:23;98042.31;;;11.02;79.65
47430;BME280;33181;49.246;7.372;2022-12-29T05:06:49;98039.97;;;10.99;79.68
47430;BME280;33181;49.246;7.372;2022-12-29T05:09:15;98030.41;;;11.08;79.01
47430;BME280;33181;49.246;7.372;2022-12-29T05:11:41;98044.94;;;11.02;79.09
47430;BME280;33181;49.246;7.372;2022-12-29T05:14:06;98039.16;;;10.99;79.89
47430;BME280;33181;49.246;7.372;2022-12-29T05:16:32;98035.38;;;11.11;78.91
47430;BME280;33181;49.246;7.372;2022-12-29T05:18:58;98041.34;;;11.03;78.93
47430;BME280;33181;49.246;7.372;2022-12-29T05:21:23;98046.00;;;11.09;78.57
47430;BME280;33181;49.246;7.372;2022-12-29T05:23:49;98049.50;;;11.10;77.38
47430;BME280;33181;49.246;7.372;2022-12-29T05:26:15;98048.22;;;11.14;77.17
47430;BME280;33181;49.246;7.372;2022-12-29T05:28:40;98039.88;;;11.19;76.80
47430;BME280;33181;49.246;7.372;2022-12-29T05:31:06;98035.72;;;11.26;76.07
47430;BME280;33181;49.246;7.372;2022-12-29T05:33:32;98049.81;;;11.25;75.85
47430;BME280;33181;49.246;7.372;2022-12-29T05:36:04;98026.22;;;11.15;76.00
47430;BME280;33181;49.246;7.372;2022-12-29T05:38:30;98040.19;;;11.16;76.29
47430;BME280;33181;49.246;7.372;2022-12-29T05:40:56;98023.41;;;11.26;75.51
47430;BME280;33181;49.246;7.372;2022-12-29T05:43:21;98025.75;;;11.29;75.05
47430;BME280;33181;49.246;7.372;2022-12-29T05:45:52;98034.84;;;11.35;74.42
47430;BME280;33181;49.246;7.372;2022-12-29T05:48:18;98028.91;;;11.33;74.77
47430;BME280;33181;49.246;7.372;2022-12-29T05:50:51;98031.94;;;11.38;74.58
47430;BME280;33181;49.246;7.372;2022-12-29T05:53:20;98036.22;;;11.39;74.13
47430;BME280;33181;49.246;7.372;2022-12-29T05:55:48;98030.72;;;11.32;74.47
47430;BME280;33181;49.246;7.372;2022-12-29T05:58:16;98031.31;;;11.44;73.98
47430;BME280;33181;49.246;7.372;2022-12-29T06:00:42;98025.78;;;11.47;73.78
47430;BME280;33181;49.246;7.372;2022-12-29T06:03:08;98027.44;;;11.48;73.63
47430;BME280;33181;49.246;7.372;2022-12-29T06:05:34;98000.47;;;11.46;73.86
47430;BME280;33181;49.246;7.372;2022-12-29T06:08:00;98003.31;;;11.53;72.93
47430;BME280;33181;49.246;7.372;2022-12-29T06:10:25;98015.88;;;11.59;72.75
47430;BME280;33181;49.246;7.372;2022-12-29T06:12:51;98005.41;;;11.49;73.16
47430;BME280;33181;49.246;7.372;2022-12-29T06:15:17;98013.19;;;11.51;73.23
47430;BME280;33181;49.246;7.372;2022-12-29T06:17:43;98008.00;;;11.59;72.71
47430;BME280;33181;49.246;7.372;2022-12-29T06:20:10;98023.03;;;11.67;72.54
47430;BME280;33181;49.246;7.372;2022-12-29T06:22:36;98014.47;;;11.65;72.55
47430;BME280;33181;49.246;7.372;2022-12-29T06:25:02;98015.28;;;11.65;72.82
47430;BME280;33181;49.246;7.372;2022-12-29T06:27:28;98016.94;;;11.66;72.41
47430;BME280;33181;49.246;7.372;2022-12-29T06:29:54;98016.88;;;11.58;72.72
47430;BME280;33181;49.246;7.372;2022-12-29T06:32:21;98032.47;;;11.59;72.44
47430;BME280;33181;49.246;7.372;2022-12-29T06:34:47;98021.25;;;11.67;72.26
47430;BME280;33181;49.246;7.372;2022-12-29T06:37:12;98019.81;;;11.73;71.39
47430;BME280;33181;49.246;7.372;2022-12-29T06:39:38;98024.84;;;11.84;70.98
47430;BME280;33181;49.246;7.372;2022-12-29T06:42:04;98008.00;;;11.77;71.34
47430;BME280;33181;49.246;7.372;2022-12-29T06:44:30;98027.03;;;11.71;71.56
47430;BME280;33181;49.246;7.372;2022-12-29T06:46:55;98019.66;;;11.74;71.35
47430;BME280;33181;49.246;7.372;2022-12-29T06:49:22;98016.19;;;11.74;71.42
47430;BME280;33181;49.246;7.372;2022-12-29T06:51:48;98022.28;;;11.74;71.19
47430;BME280;33181;49.246;7.372;2022-12-29T06:54:14;98021.16;;;11.77;71.42
47430;BME280;33181;49.246;7.372;2022-12-29T06:56:40;98032.81;;;11.74;71.09
47430;BME280;33181;49.246;7.372;2022-12-29T06:59:06;98035.31;;;11.76;71.13
47430;BME280;33181;49.246;7.372;2022-12-29T07:01:31;98032.06;;;11.82;70.51
47430;BME280;33181;49.246;7.372;2022-12-29T07:03:57;98043.50;;;11.73;71.50
47430;BME280;33181;49.246;7.372;2022-12-29T07:06:23;98047.91;;;11.72;71.64
47430;BME280;33181;49.246;7.372;2022-12-29T07:08:49;98047.47;;;11.77;70.88
47430;BME280;33181;49.246;7.372;2022-12-29T07:11:15;98024.84;;;11.84;70.54
47430;BME280;33181;49.246;7.372;2022-12-29T07:13:40;98034.97;;;11.79;70.99
47430;BME280;33181;49.246;7.372;2022-12-29T07:16:08;98051.31;;;11.82;70.98
47430;BME280;33181;49.246;7.372;2022-12-29T07:18:34;98047.72;;;11.83;71.41
47430;BME280;33181;49.246;7.372;2022-12-29T07:21:00;98055.16;;;11.88;70.80
47430;BME280;33181;49.246;7.372;2022-12-29T07:23:25;98046.88;;;11.83;71.29
47430;BME280;33181;49.246;7.372;2022-12-29T07:26:03;98060.25;;;11.72;71.93
47430;BME280;33181;49.246;7.372;2022-12-29T07:28:29;98065.72;;;11.78;71.64
47430;BME280;33181;49.246;7.372;2022-12-29T07:30:55;98071.75;;;11.71;72.08
47430;BME280;33181;49.246;7.372;2022-12-29T07:33:21;98076.13;;;11.80;71.82
47430;BME280;33181;49.246;7.372;2022-12-29T07:35:47;98072.81;;;11.78;71.86
47430;BME280;33181;49.246;7.372;2022-12-29T07:38:12;98080.53;;;11.89;71.90
47430;BME280;33181;49.246;7.372;2022-12-29T07:40:38;98089.19;;;11.72;74.44
47430;BME280;33181;49.246;7.372;2022-12-29T07:43:04;98064.50;;;11.55;77.41
47430;BME280;33181;49.246;7.372;2022-12-29T07:45:30;98069.53;;;11.48;76.96
47430;BME280;33181;49.246;7.372;2022-12-29T07:47:55;98086.25;;;11.47;77.02
47430;BME280;33181;49.246;7.372;2022-12-29T07:50:21;98095.34;;;11.35;78.22
47430;BME280;33181;49.246;7.372;2022-12-29T07:52:47;98086.75;;;11.33;78.21
47430;BME280;33181;49.246;7.372;2022-12-29T07:55:16;98095.63;;;11.32;77.11
47430;BME280;33181;49.246;7.372;2022-12-29T07:57:42;98102.03;;;11.47;76.19
47430;BME280;33181;49.246;7.372;2022-12-29T08:00:09;98109.09;;;11.47;77.03
47430;BME280;33181;49.246;7.372;2022-12-29T08:02:36;98112.59;;;11.37;77.64
47430;BME280;33181;49.246;7.372;2022-12-29T08:05:02;98119.63;;;11.47;77.09
47430;BME280;33181;49.246;7.372;2022-12-29T08:07:27;98105.25;;;11.41;78.26
47430;BME280;33181;49.246;7.372;2022-12-29T08:09:53;98121.22;;;11.30;79.22
47430;BME280;33181;49.246;7.372;2022-12-29T08:12:19;98120.81;;;11.25;80.23
47430;BME280;33181;49.246;7.372;2022-12-29T08:14:45;98114.88;;;11.23;80.64
47430;BME280;33181;49.246;7.372;2022-12-29T08:17:10;98135.66;;;11.16;81.19
47430;BME280;33181;49.246;7.372;2022-12-29T08:19:37;98123.47;;;11.15;81.35
47430;BME280;33181;49.246;7.372;2022-12-29T08:22:03;98138.38;;;11.24;80.22
47430;BME280;33181;49.246;7.372;2022-12-29T08:24:31;98133.13;;;11.24;79.87
47430;BME280;33181;49.246;7.372;2022-12-29T08:26:57;98146.81;;;11.28;79.24
47430;BME280;33181;49.246;7.372;2022-12-29T08:29:23;98140.88;;;11.26;80.01
47430;BME280;33181;49.246;7.372;2022-12-29T08:31:48;98141.84;;;11.25;79.92
47430;BME280;33181;49.246;7.372;2022-12-29T08:34:14;98140.03;;;11.25;80.17
47430;BME280;33181;49.246;7.372;2022-12-29T08:36:40;98152.09;;;11.18;81.28
47430;BME280;33181;49.246;7.372;2022-12-29T08:39:05;98161.50;;;11.21;81.65
47430;BME280;33181;49.246;7.372;2022-12-29T08:41:31;98157.50;;;11.17;83.16
47430;BME280;33181;49.246;7.372;2022-12-29T08:43:57;98159.44;;;11.14;83.45
47430;BME280;33181;49.246;7.372;2022-12-29T08:46:23;98164.72;;;11.05;85.36
47430;BME280;33181;49.246;7.372;2022-12-29T08:48:51;98154.75;;;11.08;84.63
47430;BME280;33181;49.246;7.372;2022-12-29T08:51:16;98163.75;;;11.06;85.66
47430;BME280;33181;49.246;7.372;2022-12-29T08:53:42;98153.50;;;11.03;86.70
47430;BME280;33181;49.246;7.372;2022-12-29T08:56:09;98158.25;;;10.89;88.21
47430;BME280;33181;49.246;7.372;2022-12-29T08:58:35;98169.88;;;10.67;90.85
47430;BME280;33181;49.246;7.372;2022-12-29T09:01:01;98162.97;;;10.66;90.34
47430;BME280;33181;49.246;7.372;2022-12-29T09:03:27;98167.94;;;10.70;90.27
47430;BME280;33181;49.246;7.372;2022-12-29T09:05:54;98175.41;;;10.74;89.85
47430;BME280;33181;49.246;7.372;2022-12-29T09:08:22;98168.78;;;10.70;89.07
47430;BME280;33181;49.246;7.372;2022-12-29T09:10:47;98177.34;;;10.82;88.30
47430;BME280;33181;49.246;7.372;2022-12-29T09:13:15;98168.31;;;10.84;88.30
47430;BME280;33181;49.246;7.372;2022-12-29T09:15:41;98169.47;;;10.82;89.55
47430;BME280;33181;49.246;7.372;2022-12-29T09:18:08;98179.41;;;10.88;90.44
47430;BME280;33181;49.246;7.372;2022-12-29T09:20:34;98175.25;;;10.85;90.80
47430;BME280;33181;49.246;7.372;2022-12-29T09:23:00;98168.63;;;10.81;92.10
47430;BME280;33181;49.246;7.372;2022-12-29T09:25:27;98172.50;;;10.77;91.76
47430;BME280;33181;49.246;7.372;2022-12-29T09:27:53;98178.84;;;10.75;92.14
47430;BME280;33181;49.246;7.372;2022-12-29T09:30:21;98180.09;;;10.71;92.28
47430;BME280;33181;49.246;7.372;2022-12-29T09:32:48;98187.44;;;10.77;90.94
47430;BME280;33181;49.246;7.372;2022-12-29T09:35:16;98189.78;;;10.80;90.45
47430;BME280;33181;49.246;7.372;2022-12-29T09:37:43;98183.69;;;10.89;90.20
47430;BME280;33181;49.246;7.372;2022-12-29T09:40:31;98186.16;;;10.90;89.72
47430;BME280;33181;49.246;7.372;2022-12-29T09:43:48;98181.19;;;10.97;88.73
47430;BME280;33181;49.246;7.372;2022-12-29T09:52:03;98196.53;;;11.11;86.72
47430;BME280;33181;49.246;7.372;2022-12-29T09:54:54;98190.56;;;11.19;85.93
47430;BME280;33181;49.246;7.372;2022-12-29T09:57:29;98186.41;;;11.26;85.64
47430;BME280;33181;49.246;7.372;2022-12-29T10:00:22;98197.19;;;11.23;86.22
47430;BME280;33181;49.246;7.372;2022-12-29T10:02:58;98199.00;;;11.23;86.79
47430;BME280;33181;49.246;7.372;2022-12-29T10:08:44;98204.28;;;10.94;90.05
47430;BME280;33181;49.246;7.372;2022-12-29T10:14:53;98206.50;;;10.98;90.66
47430;BME280;33181;49.246;7.372;2022-12-29T10:20:54;98209.81;;;10.90;89.72
47430;BME280;33181;49.246;7.372;2022-12-29T10:26:14;98203.16;;;11.06;88.13
47430;BME280;33181;49.246;7.372;2022-12-29T10:28:51;98217.00;;;11.18;87.41
47430;BME280;33181;49.246;7.372;2022-12-29T10:31:44;98211.28;;;11.42;85.04
47430;BME280;33181;49.246;7.372;2022-12-29T10:34:53;98216.94;;;11.37;86.22
47430;BME280;33181;49.246;7.372;2022-12-29T10:37:32;98214.31;;;11.37;85.83
47430;BME280;33181;49.246;7.372;2022-12-29T10:40:36;98210.59;;;11.30;85.03
47430;BME280;33181;49.246;7.372;2022-12-29T10:43:28;98205.59;;;11.36;84.38
47430;BME280;33181;49.246;7.372;2022-12-29T10:45:58;98207.16;;;11.29;84.59
47430;BME280;33181;49.246;7.372;2022-12-29T10:48:33;98210.06;;;11.26;84.40
47430;BME280;33181;49.246;7.372;2022-12-29T10:51:02;98218.03;;;11.44;82.77
47430;BME280;33181;49.246;7.372;2022-12-29T10:53:46;98220.94;;;11.41;82.55
47430;BME280;33181;49.246;7.372;2022-12-29T10:56:43;98229.69;;;11.42;82.39
47430;BME280;33181;49.246;7.372;2022-12-29T10:59:35;98238.41;;;11.42;83.15
47430;BME280;33181;49.246;7.372;2022-12-29T11:02:19;98224.97;;;11.45;82.46
47430;BME280;33181;49.246;7.372;2022-12-29T11:04:55;98227.59;;;11.45;82.68
47430;BME280;33181;49.246;7.372;2022-12-29T11:07:31;98221.78;;;11.51;81.07
47430;BME280;33181;49.246;7.372;2022-12-29T11:10:38;98226.78;;;11.45;79.79
47430;BME280;33181;49.246;7.372;2022-12-29T11:13:32;98223.06;;;11.28;81.45
47430;BME280;33181;49.246;7.372;2022-12-29T11:15:58;98230.97;;;11.08;83.21
47430;BME280;33181;49.246;7.372;2022-12-29T11:18:36;98222.38;;;11.06;84.98
47430;BME280;33181;49.246;7.372;2022-12-29T11:21:07;98239.28;;;11.04;85.88
47430;BME280;33181;49.246;7.372;2022-12-29T11:23:41;98241.06;;;10.94;86.47
47430;BME280;33181;49.246;7.372;2022-12-29T11:26:20;98230.84;;;10.81;88.08
47430;BME280;33181;49.246;7.372;2022-12-29T11:29:23;98231.38;;;10.84;89.26
47430;BME280;33181;49.246;7.372;2022-12-29T11:31:55;98240.25;;;10.93;88.85
47430;BME280;33181;49.246;7.372;2022-12-29T11:34:33;98231.97;;;10.88;89.82
47430;BME280;33181;49.246;7.372;2022-12-29T11:40:18;98226.97;;;10.95;88.73
47430;BME280;33181;49.246;7.372;2022-12-29T11:42:58;98227.81;;;10.95;89.51
47430;BME280;33181;49.246;7.372;2022-12-29T11:45:34;98237.88;;;11.00;89.32
47430;BME280;33181;49.246;7.372;2022-12-29T11:48:20;98223.50;;;11.04;89.47
47430;BME280;33181;49.246;7.372;2022-12-29T11:50:56;98235.69;;;11.05;89.84
47430;BME280;33181;49.246;7.372;2022-12-29T11:53:46;98240.22;;;11.03;88.60
47430;BME280;33181;49.246;7.372;2022-12-29T11:56:16;98240.25;;;10.93;87.65
47430;BME280;33181;49.246;7.372;2022-12-29T11:58:42;98243.56;;;10.95;88.47
47430;BME280;33181;49.246;7.372;2022-12-29T12:01:38;98246.88;;;10.78;89.22
47430;BME280;33181;49.246;7.372;2022-12-29T12:04:14;98245.63;;;10.62;89.25
47430;BME280;33181;49.246;7.372;2022-12-29T12:06:53;98245.19;;;10.48;90.66
47430;BME280;33181;49.246;7.372;2022-12-29T12:09:38;98246.69;;;10.40;89.43
47430;BME280;33181;49.246;7.372;2022-12-29T12:15:35;98239.91;;;10.28;90.97
47430;BME280;33181;49.246;7.372;2022-12-29T12:18:37;98237.84;;;10.32;91.59
47430;BME280;33181;49.246;7.372;2022-12-29T12:21:39;98234.88;;;10.25;90.72
47430;BME280;33181;49.246;7.372;2022-12-29T12:24:34;98234.72;;;10.17;90.78
47430;BME280;33181;49.246;7.372;2022-12-29T12:27:18;98236.50;;;10.16;91.43
47430;BME280;33181;49.246;7.372;2022-12-29T12:30:11;98229.31;;;10.09;91.99
47430;BME280;33181;49.246;7.372;2022-12-29T12:32:58;98234.56;;;10.09;92.02
47430;BME280;33181;49.246;7.372;2022-12-29T12:42:21;98228.91;;;9.73;92.89
47430;BME280;33181;49.246;7.372;2022-12-29T12:45:07;98219.94;;;9.75;91.49
47430;BME280;33181;49.246;7.372;2022-12-29T12:50:45;98213.56;;;9.68;91.49
47430;BME280;33181;49.246;7.372;2022-12-29T12:53:36;98216.75;;;9.72;90.37
47430;BME280;33181;49.246;7.372;2022-12-29T12:56:27;98213.94;;;9.64;90.20
47430;BME280;33181;49.246;7.372;2022-12-29T12:59:38;98220.16;;;9.63;90.98
47430;BME280;33181;49.246;7.372;2022-12-29T13:02:47;98212.94;;;9.55;91.69
47430;BME280;33181;49.246;7.372;2022-12-29T13:05:50;98213.22;;;9.52;91.67
47430;BME280;33181;49.246;7.372;2022-12-29T13:15:37;98203.00;;;9.49;91.22
47430;BME280;33181;49.246;7.372;2022-12-29T13:19:05;98214.69;;;9.45;89.62
47430;BME280;33181;49.246;7.372;2022-12-29T13:28:06;98214.13;;;9.41;91.48
47430;BME280;33181;49.246;7.372;2022-12-29T13:36:48;98222.69;;;9.22;94.11
47430;BME280;33181;49.246;7.372;2022-12-29T13:39:40;98237.28;;;9.15;95.65
47430;BME280;33181;49.246;7.372;2022-12-29T13:42:07;98236.69;;;9.12;97.05
47430;BME280;33181;49.246;7.372;2022-12-29T13:44:43;98222.13;;;9.19;96.36
47430;BME280;33181;49.246;7.372;2022-12-29T13:47:40;98215.91;;;9.20;96.77
47430;BME280;33181;49.246;7.372;2022-12-29T13:50:18;98226.31;;;9.10;98.29
47430;BME280;33181;49.246;7.372;2022-12-29T13:56:09;98205.31;;;9.21;97.76
47430;BME280;33181;49.246;7.372;2022-12-29T13:59:05;98210.00;;;9.18;98.12
47430;BME280;33181;49.246;7.372;2022-12-29T14:04:27;98237.66;;;9.32;97.96
47430;BME280;33181;49.246;7.372;2022-12-29T14:07:04;98239.88;;;9.36;97.78
47430;BME280;33181;49.246;7.372;2022-12-29T14:09:45;98246.47;;;9.31;97.78
47430;BME280;33181;49.246;7.372;2022-12-29T14:12:30;98245.81;;;9.38;98.36
47430;BME280;33181;49.246;7.372;2022-12-29T14:17:35;98235.47;;;9.37;98.27
47430;BME280;33181;49.246;7.372;2022-12-29T14:20:01;98240.16;;;9.33;98.38
47430;BME280;33181;49.246;7.372;2022-12-29T14:22:28;98234.13;;;9.42;98.10
47430;BME280;33181;49.246;7.372;2022-12-29T14:24:54;98236.38;;;9.47;97.14
47430;BME280;33181;49.246;7.372;2022-12-29T14:29:48;98231.22;;;9.45;96.05
47430;BME280;33181;49.246;7.372;2022-12-29T14:34:56;98228.63;;;9.45;96.01
47430;BME280;33181;49.246;7.372;2022-12-29T14:37:35;98224.22;;;9.46;95.48
47430;BME280;33181;49.246;7.372;2022-12-29T14:40:18;98233.75;;;9.47;95.37
47430;BME280;33181;49.246;7.372;2022-12-29T14:42:46;98239.81;;;9.47;96.02
47430;BME280;33181;49.246;7.372;2022-12-29T14:47:47;98243.66;;;9.43;96.63
47430;BME280;33181;49.246;7.372;2022-12-29T14:50:23;98240.31;;;9.41;96.54
47430;BME280;33181;49.246;7.372;2022-12-29T14:52:58;98247.66;;;9.26;98.34
47430;BME280;33181;49.246;7.372;2022-12-29T14:55:54;98251.91;;;9.39;97.30
47430;BME280;33181;49.246;7.372;2022-12-29T14:58:58;98243.03;;;9.30;98.05
47430;BME280;33181;49.246;7.372;2022-12-29T15:01:45;98233.06;;;9.24;98.64
47430;BME280;33181;49.246;7.372;2022-12-29T15:04:27;98244.28;;;9.36;98.35
47430;BME280;33181;49.246;7.372;2022-12-29T15:06:57;98238.09;;;9.37;97.95
47430;BME280;33181;49.246;7.372;2022-12-29T15:09:41;98248.84;;;9.34;98.45
47430;BME280;33181;49.246;7.372;2022-12-29T15:12:19;98255.34;;;9.39;97.88
47430;BME280;33181;49.246;7.372;2022-12-29T15:14:58;98256.81;;;9.32;98.08
47430;BME280;33181;49.246;7.372;2022-12-29T15:17:33;98259.31;;;9.34;98.32
47430;BME280;33181;49.246;7.372;2022-12-29T15:20:14;98258.41;;;9.23;98.66